createdAt,value
2018-01-12T00:02:20.887Z,28.37
2018-01-12T00:04:49.349Z,28.07
2018-01-12T00:07:17.966Z,26.83
2018-01-12T00:09:46.378Z,28.43
2018-01-12T00:12:14.787Z,28.80
2018-01-12T00:14:44.844Z,29.63
2018-01-12T00:17:13.325Z,30.03
2018-01-12T00:19:41.768Z,27.57
2018-01-12T00:22:10.995Z,28.50
2018-01-12T00:24:39.382Z,27.37
2018-01-12T00:27:07.770Z,30.53
2018-01-12T00:29:36.242Z,27.67
2018-01-12T00:32:04.591Z,28.67
2018-01-12T00:34:32.939Z,29.00
2018-01-12T00:37:01.289Z,27.50
2018-01-12T00:39:29.632Z,28.70
2018-01-12T00:41:58.054Z,28.20
2018-01-12T00:44:26.462Z,31.77
2018-01-12T00:46:55.572Z,31.00
2018-01-12T00:49:23.998Z,29.80
2018-01-12T00:51:52.332Z,31.13
2018-01-12T00:54:21.428Z,30.47
2018-01-12T00:56:49.782Z,27.30
2018-01-12T00:59:18.175Z,31.97
2018-01-12T01:01:46.532Z,28.47
2018-01-12T01:04:14.935Z,32.17
2018-01-12T01:06:43.342Z,34.53
2018-01-12T01:09:11.689Z,33.20
2018-01-12T01:11:40.110Z,37.57
2018-01-12T01:14:08.586Z,34.70
2018-01-12T01:16:36.990Z,31.47
2018-01-12T01:19:05.380Z,37.13
2018-01-12T01:21:33.785Z,34.00
2018-01-12T01:24:02.913Z,35.93
2018-01-12T01:26:31.326Z,32.03
2018-01-12T01:28:59.740Z,34.20
2018-01-12T01:31:28.848Z,33.57
2018-01-12T01:33:57.943Z,33.50
2018-01-12T01:36:26.358Z,34.40
2018-01-12T01:38:54.770Z,36.30
2018-01-12T01:41:23.168Z,36.10
2018-01-12T01:43:51.595Z,34.50
2018-01-12T01:46:20.706Z,33.93
2018-01-12T01:48:49.463Z,31.40
2018-01-12T01:51:17.872Z,30.10
2018-01-12T01:53:46.280Z,32.20
2018-01-12T01:56:14.631Z,31.53
2018-01-12T01:58:42.988Z,29.40
2018-01-12T02:01:11.320Z,31.70
2018-01-12T02:03:39.712Z,33.27
2018-01-12T02:06:08.918Z,28.90
2018-01-12T02:08:38.040Z,30.60
2018-01-12T02:11:06.373Z,32.23
2018-01-12T02:13:35.255Z,32.67
2018-01-12T02:16:03.663Z,30.50
2018-01-12T02:18:32.066Z,32.23
2018-01-12T02:21:00.526Z,38.13
2018-01-12T02:23:28.932Z,38.23
2018-01-12T02:25:57.340Z,36.37
2018-01-12T02:28:25.692Z,36.53
2018-01-12T02:30:54.024Z,35.90
2018-01-12T02:33:22.355Z,33.73
2018-01-12T02:35:50.780Z,32.83
2018-01-12T02:38:19.908Z,34.70
2018-01-12T02:40:48.428Z,37.33
2018-01-12T02:43:16.778Z,36.07
2018-01-12T02:45:45.171Z,33.70
2018-01-12T02:48:13.611Z,36.50
2018-01-12T02:50:41.960Z,32.23
2018-01-12T02:53:10.292Z,33.00
2018-01-12T02:55:38.651Z,33.60
2018-01-12T02:58:07.823Z,34.17
2018-01-12T03:00:36.991Z,35.60
2018-01-12T03:03:05.395Z,35.10
2018-01-12T03:05:33.791Z,29.50
2018-01-12T03:08:02.967Z,33.67
2018-01-12T03:10:31.367Z,32.83
2018-01-12T03:12:59.750Z,31.20
2018-01-12T03:15:28.162Z,34.30
2018-01-12T03:17:56.571Z,34.70
2018-01-12T03:20:25.006Z,37.77
2018-01-12T03:22:53.375Z,35.70
2018-01-12T03:25:21.716Z,33.90
2018-01-12T03:27:50.183Z,31.63
2018-01-12T03:30:18.556Z,32.23
2018-01-12T03:32:46.982Z,32.40
2018-01-12T03:35:16.290Z,34.67
2018-01-12T03:37:44.769Z,35.50
2018-01-12T03:40:14.036Z,37.03
2018-01-12T03:42:42.481Z,36.77
2018-01-12T03:45:10.884Z,33.47
2018-01-12T03:47:39.239Z,36.37
2018-01-12T03:50:07.647Z,30.37
2018-01-12T03:52:36.046Z,31.23
2018-01-12T03:55:04.455Z,29.13
2018-01-12T03:57:32.999Z,33.53
2018-01-12T04:00:01.418Z,31.23
2018-01-12T04:02:29.827Z,31.33
2018-01-12T04:04:58.210Z,31.10
2018-01-12T04:07:26.532Z,33.83
2018-01-12T04:09:54.869Z,29.33
2018-01-12T04:12:23.204Z,33.43
2018-01-12T04:14:52.388Z,31.63
2018-01-12T04:17:21.557Z,31.23
2018-01-12T04:19:49.978Z,29.10
2018-01-12T04:22:18.411Z,27.50
2018-01-12T04:24:46.823Z,30.20
2018-01-12T04:27:15.948Z,30.67
2018-01-12T04:29:44.436Z,27.77
2018-01-12T04:32:12.914Z,28.37
2018-01-12T04:34:41.379Z,27.50
2018-01-12T04:37:09.789Z,28.47
2018-01-12T04:39:38.269Z,31.20
2018-01-12T04:42:06.668Z,28.37
2018-01-12T04:44:35.262Z,26.73
2018-01-12T04:47:03.759Z,29.87
2018-01-12T04:49:32.296Z,26.37
2018-01-12T04:52:01.491Z,27.00
2018-01-12T04:54:29.933Z,26.13
2018-01-12T04:56:58.498Z,26.30
2018-01-12T04:59:27.020Z,29.33
2018-01-12T05:01:55.570Z,29.53
2018-01-12T05:04:24.121Z,30.80
2018-01-12T05:06:52.667Z,31.90
2018-01-12T05:09:21.329Z,29.00
2018-01-12T05:11:50.568Z,29.40
2018-01-12T05:14:19.093Z,29.47
2018-01-12T05:16:47.679Z,33.37
2018-01-12T05:19:16.453Z,36.23
2018-01-12T05:21:45.208Z,36.27
2018-01-12T05:24:13.694Z,34.57
2018-01-12T05:26:42.308Z,36.33
2018-01-12T05:29:10.663Z,34.50
2018-01-12T05:31:39.045Z,36.07
2018-01-12T05:34:07.570Z,37.33
2018-01-12T05:36:36.804Z,39.60
2018-01-12T05:39:05.336Z,40.27
2018-01-12T05:41:33.831Z,40.07
2018-01-12T05:44:02.209Z,41.80
2018-01-12T05:46:30.948Z,43.63
2018-01-12T05:48:59.418Z,44.83
2018-01-12T05:51:27.833Z,41.63
2018-01-12T05:53:56.321Z,44.13
2018-01-12T05:56:24.760Z,45.30
2018-01-12T05:58:53.250Z,40.00
2018-01-12T06:01:39.194Z,43.30
2018-01-12T06:04:25.175Z,44.37
2018-01-12T06:06:53.582Z,43.30
2018-01-12T06:09:21.979Z,43.37
2018-01-12T06:11:50.382Z,42.83
2018-01-12T06:14:18.794Z,42.77
2018-01-12T06:16:47.159Z,44.67
2018-01-12T06:19:15.592Z,42.43
2018-01-12T06:21:43.989Z,42.13
2018-01-12T06:24:12.329Z,38.37
2018-01-12T06:26:41.514Z,40.37
2018-01-12T06:29:10.620Z,40.27
2018-01-12T06:31:39.791Z,41.03
2018-01-12T06:34:08.206Z,37.27
2018-01-12T06:36:37.386Z,37.83
2018-01-12T06:39:05.764Z,34.20
2018-01-12T06:41:34.105Z,32.10
2018-01-12T06:44:02.500Z,28.03
2018-01-12T06:46:30.855Z,29.33
2018-01-12T06:48:59.265Z,28.93
2018-01-12T06:51:27.673Z,28.47
2018-01-12T06:53:56.886Z,26.33
2018-01-12T06:56:25.287Z,25.53
2018-01-12T06:58:53.620Z,23.70
2018-01-12T07:01:22.741Z,26.67
2018-01-12T07:03:51.123Z,25.07
2018-01-12T07:06:19.560Z,24.77
2018-01-12T07:08:47.915Z,23.57
2018-01-12T07:11:16.301Z,21.70
2018-01-12T07:13:44.634Z,22.70
2018-01-12T07:16:12.997Z,23.87
2018-01-12T07:18:42.100Z,22.50
2018-01-12T07:21:28.083Z,22.63
2018-01-12T07:23:56.417Z,23.77
2018-01-12T07:26:24.740Z,21.97
2018-01-12T07:28:53.170Z,23.40
2018-01-12T07:31:21.504Z,21.33
2018-01-12T07:33:49.824Z,22.50
2018-01-12T07:36:18.230Z,22.00
2018-01-12T07:38:46.651Z,23.87
2018-01-12T07:41:15.156Z,24.07
2018-01-12T07:43:43.578Z,24.00
2018-01-12T07:46:12.742Z,26.77
2018-01-12T07:48:41.171Z,25.90
2018-01-12T07:51:10.343Z,25.17
2018-01-12T07:53:38.740Z,30.57
2018-01-12T07:56:07.959Z,28.60
2018-01-12T07:58:37.167Z,32.47
2018-01-12T08:01:10.978Z,29.47
2018-01-12T08:03:39.382Z,29.43
2018-01-12T08:06:07.736Z,29.53
2018-01-12T08:08:36.072Z,28.17
2018-01-12T08:11:04.462Z,27.80
2018-01-12T08:13:33.592Z,30.60
2018-01-12T08:16:01.945Z,31.83
2018-01-12T08:18:31.047Z,32.80
2018-01-12T08:21:00.157Z,29.20
2018-01-12T08:23:28.479Z,32.60
2018-01-12T08:25:56.814Z,32.00
2018-01-12T08:28:25.190Z,31.23
2018-01-12T08:30:53.578Z,34.40
2018-01-12T08:33:21.912Z,35.17
2018-01-12T08:35:50.311Z,30.70
2018-01-12T08:38:19.048Z,31.27
2018-01-12T08:40:47.452Z,31.87
2018-01-12T08:43:16.590Z,31.93
2018-01-12T08:45:44.981Z,31.90
2018-01-12T08:48:13.390Z,33.27
2018-01-12T08:50:41.760Z,34.47
2018-01-12T08:53:10.145Z,32.27
2018-01-12T08:55:38.547Z,33.00
2018-01-12T08:58:08.527Z,30.00
2018-01-12T09:00:36.851Z,32.30
2018-01-12T09:03:06.007Z,31.57
2018-01-12T09:05:34.428Z,33.47
2018-01-12T09:08:02.802Z,31.30
2018-01-12T09:10:31.941Z,31.40
2018-01-12T09:13:01.098Z,32.87
2018-01-12T09:15:30.204Z,29.70
2018-01-12T09:18:01.218Z,33.90
2018-01-12T09:20:35.852Z,31.97
2018-01-12T09:26:09.614Z,34.23
2018-01-12T09:28:38.805Z,33.63
2018-01-12T09:31:07.971Z,36.37
2018-01-12T09:33:36.380Z,32.60
2018-01-12T09:36:05.548Z,36.37
2018-01-12T09:38:45.870Z,35.77
2018-01-12T09:41:14.203Z,34.87
2018-01-12T09:43:42.541Z,38.20
2018-01-12T09:46:10.951Z,34.10
2018-01-12T09:48:39.299Z,35.70
2018-01-12T09:51:07.629Z,33.83
2018-01-12T09:53:36.824Z,35.50
2018-01-12T09:56:06.004Z,33.17
2018-01-12T09:58:34.375Z,36.57
2018-01-12T10:01:03.581Z,34.70
2018-01-12T10:03:31.935Z,37.03
2018-01-12T10:06:00.443Z,34.30
2018-01-12T10:08:28.777Z,34.17
2018-01-12T10:10:57.095Z,34.90
2018-01-12T10:13:25.516Z,36.03
2018-01-12T10:15:53.907Z,32.60
2018-01-12T10:18:34.969Z,33.53
2018-01-12T10:21:13.088Z,33.20
2018-01-12T10:23:41.461Z,34.80
2018-01-12T10:26:09.856Z,34.90
2018-01-12T10:28:55.908Z,34.40
2018-01-12T10:34:45.294Z,38.00
2018-01-12T10:37:14.436Z,34.03
2018-01-12T10:39:59.092Z,30.40
2018-01-12T10:42:27.512Z,33.17
2018-01-12T10:44:55.864Z,32.67
2018-01-12T10:47:26.902Z,35.40
2018-01-12T10:53:11.530Z,37.17
2018-01-12T10:55:39.934Z,36.80
2018-01-12T10:58:08.303Z,33.33
2018-01-12T11:00:36.704Z,34.17
2018-01-12T11:03:05.043Z,34.53
2018-01-12T11:05:34.226Z,35.73
2018-01-12T11:08:02.638Z,35.67
2018-01-12T11:10:30.978Z,34.90
2018-01-12T11:12:59.402Z,33.00
2018-01-12T11:15:27.836Z,36.60
2018-01-12T11:17:56.943Z,44.23
2018-01-12T11:20:26.120Z,39.93
2018-01-12T11:22:54.520Z,35.60
2018-01-12T11:25:23.627Z,35.00
2018-01-12T11:27:51.984Z,34.00
2018-01-12T11:30:20.343Z,33.20
2018-01-12T11:32:48.679Z,33.43
2018-01-12T11:35:17.118Z,36.20
2018-01-12T11:37:46.260Z,35.27
2018-01-12T11:40:14.574Z,36.20
2018-01-12T11:42:42.958Z,37.20
2018-01-12T11:45:11.296Z,36.60
2018-01-12T11:47:39.622Z,35.30
2018-01-12T11:50:07.984Z,34.90
2018-01-12T11:52:36.386Z,39.77
2018-01-12T11:55:05.554Z,36.93
2018-01-12T11:57:33.988Z,38.63
2018-01-12T12:00:02.405Z,38.00
2018-01-12T12:02:30.803Z,41.80
2018-01-12T12:04:59.227Z,39.63
2018-01-12T12:07:27.655Z,47.60
2018-01-12T12:09:56.264Z,49.10
2018-01-12T12:12:24.698Z,44.80
2018-01-12T12:14:53.028Z,42.97
2018-01-12T12:17:21.379Z,44.10
2018-01-12T12:19:49.767Z,46.43
2018-01-12T12:22:18.169Z,46.70
2018-01-12T12:24:46.534Z,47.27
2018-01-12T12:27:14.922Z,43.43
2018-01-12T12:29:43.254Z,47.00
2018-01-12T12:32:12.365Z,44.77
2018-01-12T12:34:40.754Z,44.57
2018-01-12T12:37:09.868Z,43.37
2018-01-12T12:39:39.062Z,44.57
2018-01-12T12:42:08.244Z,44.00
2018-01-12T12:44:36.662Z,42.30
2018-01-12T12:47:05.052Z,42.20
2018-01-12T12:49:33.390Z,40.57
2018-01-12T12:52:02.612Z,43.67
2018-01-12T12:54:30.952Z,44.07
2018-01-12T12:57:00.072Z,43.67
2018-01-12T12:59:29.254Z,48.00
2018-01-12T13:01:58.447Z,47.03
2018-01-12T13:04:27.615Z,46.50
2018-01-12T13:06:56.035Z,47.60
2018-01-12T13:09:25.207Z,50.53
2018-01-12T13:11:53.567Z,47.63
2018-01-12T13:14:21.930Z,48.17
2018-01-12T13:16:50.246Z,46.63
2018-01-12T13:19:18.650Z,49.33
2018-01-12T13:21:47.875Z,47.70
2018-01-12T13:24:16.282Z,45.67
2018-01-12T13:26:44.621Z,48.00
2018-01-12T13:29:13.043Z,48.43
2018-01-12T13:31:41.451Z,50.87
2018-01-12T13:34:10.634Z,52.03
2018-01-12T13:36:39.055Z,52.83
2018-01-12T13:39:07.477Z,52.57
2018-01-12T13:41:35.870Z,57.00
2018-01-12T13:44:04.216Z,56.20
2018-01-12T13:46:32.573Z,56.27
2018-01-12T13:49:00.948Z,59.77
2018-01-12T13:51:29.282Z,58.10
2018-01-12T13:53:57.716Z,58.80
2018-01-12T13:56:26.169Z,55.83
2018-01-12T13:58:54.571Z,58.33
2018-01-12T14:01:22.970Z,56.23
2018-01-12T14:03:52.092Z,56.10
2018-01-12T14:06:20.412Z,56.97
2018-01-12T14:08:48.842Z,58.53
2018-01-12T14:11:17.293Z,55.07
2018-01-12T14:13:45.701Z,55.67
2018-01-12T14:16:14.104Z,53.10
2018-01-12T14:18:43.243Z,57.27
2018-01-12T14:21:11.644Z,55.57
2018-01-12T14:23:40.059Z,57.47
2018-01-12T14:26:09.315Z,55.57
2018-01-12T14:28:37.745Z,56.87
2018-01-12T14:31:06.848Z,55.67
2018-01-12T14:33:36.013Z,55.73
2018-01-12T14:36:04.419Z,54.17
2018-01-12T14:38:32.767Z,53.40
2018-01-12T14:41:01.137Z,54.80
2018-01-12T14:43:29.488Z,54.63
2018-01-12T14:45:57.866Z,58.33
2018-01-12T14:48:26.222Z,60.93
2018-01-12T14:50:54.620Z,53.20
2018-01-12T14:53:22.948Z,50.70
2018-01-12T14:55:51.301Z,56.03
2018-01-12T14:58:19.888Z,50.53
2018-01-12T15:00:48.372Z,48.17
2018-01-12T15:03:16.884Z,47.97
2018-01-12T15:05:45.338Z,43.37
2018-01-12T15:08:13.798Z,45.20
2018-01-12T15:10:42.271Z,45.47
2018-01-12T15:13:10.893Z,46.40
2018-01-12T15:15:39.299Z,44.47
2018-01-12T15:18:07.824Z,47.63
2018-01-12T15:20:36.178Z,44.47
2018-01-12T15:23:04.538Z,44.17
2018-01-12T15:25:32.868Z,45.87
2018-01-12T15:28:01.196Z,46.80
2018-01-12T15:30:29.606Z,42.43
2018-01-12T15:32:58.058Z,47.73
2018-01-12T15:35:26.430Z,46.23
2018-01-12T15:37:54.767Z,47.33
2018-01-12T15:40:23.174Z,47.30
2018-01-12T15:42:52.416Z,45.03
2018-01-12T15:45:20.842Z,44.50
2018-01-12T15:47:49.223Z,45.10
2018-01-12T15:50:18.324Z,45.30
2018-01-12T15:52:47.491Z,43.60
2018-01-12T15:55:15.928Z,49.87
2018-01-12T15:57:45.118Z,48.73
2018-01-12T16:00:13.530Z,51.43
2018-01-12T16:02:42.655Z,49.90
2018-01-12T16:05:11.027Z,48.90
2018-01-12T16:07:39.479Z,48.00
2018-01-12T16:10:07.898Z,48.43
2018-01-12T16:12:37.067Z,49.50
2018-01-12T16:15:05.393Z,48.97
2018-01-12T16:17:33.804Z,45.53
2018-01-12T16:20:02.272Z,49.77
2018-01-12T16:22:30.639Z,51.10
2018-01-12T16:24:59.041Z,47.10
2018-01-12T16:27:27.402Z,50.27
2018-01-12T16:29:55.838Z,44.77
2018-01-12T16:32:24.255Z,48.43
2018-01-12T16:34:52.694Z,48.03
2018-01-12T16:37:21.138Z,46.37
2018-01-12T16:39:49.558Z,43.20
2018-01-12T16:42:18.695Z,44.23
2018-01-12T16:44:47.135Z,48.37
2018-01-12T16:47:15.538Z,45.40
2018-01-12T16:49:43.951Z,44.67
2018-01-12T16:52:12.353Z,46.90
2018-01-12T16:54:40.680Z,50.20
2018-01-12T16:57:09.032Z,44.70
2018-01-12T16:59:37.601Z,45.83
2018-01-12T17:02:05.944Z,48.87
2018-01-12T17:04:34.339Z,49.40
2018-01-12T17:07:02.893Z,48.47
2018-01-12T17:09:31.313Z,47.33
2018-01-12T17:11:59.750Z,49.27
2018-01-12T17:14:28.115Z,51.63
2018-01-12T17:16:57.218Z,49.33
2018-01-12T17:19:25.776Z,49.20
2018-01-12T17:21:54.891Z,48.83
2018-01-12T17:24:23.227Z,61.57
2018-01-12T17:26:51.778Z,49.90
2018-01-12T17:29:20.180Z,47.07
2018-01-12T17:31:48.513Z,49.23
2018-01-12T17:34:17.223Z,47.77
2018-01-12T17:36:45.556Z,48.43
2018-01-12T17:39:14.714Z,43.20
2018-01-12T17:41:43.138Z,49.17
2018-01-12T17:44:11.472Z,44.80
2018-01-12T17:46:39.806Z,47.47
2018-01-12T17:49:08.428Z,46.63
2018-01-12T17:51:36.846Z,46.13
2018-01-12T17:54:05.209Z,47.30
2018-01-12T17:56:33.549Z,46.30
2018-01-12T17:59:01.955Z,47.33
2018-01-12T18:01:30.428Z,45.50
2018-01-12T18:03:58.839Z,45.60
2018-01-12T18:06:27.263Z,43.73
2018-01-12T18:08:55.637Z,47.00
2018-01-12T18:11:24.034Z,45.93
2018-01-12T18:13:52.459Z,42.90
2018-01-12T18:16:20.876Z,45.10
2018-01-12T18:18:49.298Z,47.40
2018-01-12T18:21:17.640Z,46.43
2018-01-12T18:23:45.995Z,45.10
2018-01-12T18:26:14.425Z,48.17
2018-01-12T18:28:42.765Z,51.80
2018-01-12T18:31:11.104Z,48.73
2018-01-12T18:33:40.279Z,50.23
2018-01-12T18:36:08.623Z,47.83
2018-01-12T18:38:36.967Z,47.27
2018-01-12T18:41:05.399Z,50.23
2018-01-12T18:43:33.777Z,50.13
2018-01-12T18:46:02.191Z,44.77
2018-01-12T18:48:31.410Z,46.67
2018-01-12T18:50:59.771Z,45.67
2018-01-12T18:53:28.950Z,44.67
2018-01-12T18:55:58.156Z,46.37
2018-01-12T18:58:27.290Z,45.40
2018-01-12T19:00:55.690Z,47.43
2018-01-12T19:03:24.141Z,46.67
2018-01-12T19:05:52.519Z,44.43
2018-01-12T19:08:20.917Z,48.60
2018-01-12T19:10:49.481Z,45.83
2018-01-12T19:13:17.815Z,47.43
2018-01-12T19:15:46.157Z,46.73
2018-01-12T19:18:14.504Z,47.87
2018-01-12T19:20:42.827Z,44.40
2018-01-12T19:23:11.209Z,47.93
2018-01-12T19:25:39.603Z,45.80
2018-01-12T19:28:07.986Z,44.57
2018-01-12T19:30:37.156Z,44.73
2018-01-12T19:33:05.594Z,44.70
2018-01-12T19:35:33.998Z,41.70
2018-01-12T19:38:02.400Z,44.43
2018-01-12T19:40:30.839Z,41.03
2018-01-12T19:42:59.416Z,45.40
2018-01-12T19:45:27.792Z,43.47
2018-01-12T19:47:56.151Z,43.57
2018-01-12T19:50:25.341Z,41.20
2018-01-12T19:52:54.534Z,43.07
2018-01-12T19:55:23.709Z,42.90
2018-01-12T19:57:52.065Z,44.57
2018-01-12T20:00:20.414Z,39.63
2018-01-12T20:02:49.520Z,44.23
2018-01-12T20:05:17.910Z,47.43
2018-01-12T20:07:46.455Z,44.97
2018-01-12T20:10:15.552Z,44.40
2018-01-12T20:12:44.657Z,45.23
2018-01-12T20:15:13.855Z,43.03
2018-01-12T20:17:42.967Z,41.33
2018-01-12T20:20:11.295Z,40.33
2018-01-12T20:22:39.707Z,41.70
2018-01-12T20:25:08.063Z,43.73
2018-01-12T20:27:36.615Z,42.00
2018-01-12T20:30:05.054Z,41.80
2018-01-12T20:32:33.541Z,39.47
2018-01-12T20:35:02.094Z,41.80
2018-01-12T20:37:30.544Z,38.60
2018-01-12T20:39:59.736Z,39.37
2018-01-12T20:42:28.739Z,40.10
2018-01-12T20:44:57.323Z,39.70
2018-01-12T20:47:25.744Z,40.23
2018-01-12T20:49:54.113Z,40.33
2018-01-12T20:52:22.539Z,40.47
2018-01-12T20:54:51.747Z,37.60
2018-01-12T20:57:20.201Z,38.97
2018-01-12T20:59:48.758Z,38.33
2018-01-12T21:02:17.179Z,35.90
2018-01-12T21:04:45.538Z,40.73
2018-01-12T21:07:13.968Z,38.73
2018-01-12T21:09:42.432Z,38.37
2018-01-12T21:12:10.807Z,38.47
2018-01-12T21:14:39.167Z,39.27
2018-01-12T21:17:07.664Z,42.13
2018-01-12T21:19:36.225Z,36.87
2018-01-12T21:22:04.601Z,37.60
2018-01-12T21:24:32.947Z,38.50
2018-01-12T21:27:02.234Z,40.90
2018-01-12T21:29:30.628Z,41.63
2018-01-12T21:31:59.067Z,41.07
2018-01-12T21:34:27.468Z,39.67
2018-01-12T21:36:55.796Z,40.17
2018-01-12T21:39:26.486Z,39.00
2018-01-12T21:41:54.907Z,41.73
2018-01-12T21:44:23.330Z,42.73
2018-01-12T21:46:51.755Z,42.33
2018-01-12T21:49:20.183Z,43.53
2018-01-12T21:51:48.648Z,42.50
2018-01-12T21:54:17.011Z,43.60
2018-01-12T21:56:45.422Z,41.67
2018-01-12T21:59:13.909Z,41.63
2018-01-12T22:01:42.275Z,42.10
2018-01-12T22:04:10.778Z,41.33
2018-01-12T22:06:39.879Z,42.90
2018-01-12T22:09:08.282Z,43.37
2018-01-12T22:11:36.710Z,44.60
2018-01-12T22:14:05.166Z,45.70
2018-01-12T22:16:33.594Z,42.97
2018-01-12T22:19:02.690Z,43.70
2018-01-12T22:21:31.881Z,42.87
2018-01-12T22:24:00.274Z,45.50
2018-01-12T22:26:29.480Z,47.77
2018-01-12T22:28:58.734Z,46.70
2018-01-12T22:31:27.136Z,43.57
2018-01-12T22:33:55.494Z,46.53
2018-01-12T22:36:23.835Z,42.53
2018-01-12T22:38:52.159Z,43.77
2018-01-12T22:41:20.614Z,44.40
2018-01-12T22:43:48.951Z,40.43
2018-01-12T22:46:17.297Z,45.10
2018-01-12T22:48:45.685Z,44.50
2018-01-12T22:51:14.881Z,45.13
2018-01-12T22:53:44.000Z,43.50
2018-01-12T22:56:12.425Z,45.87
2018-01-12T22:58:40.766Z,45.33
2018-01-12T23:01:09.192Z,45.40
2018-01-12T23:03:37.670Z,40.37
2018-01-12T23:06:06.095Z,44.13
2018-01-12T23:08:34.456Z,41.83
2018-01-12T23:11:03.577Z,42.13
2018-01-12T23:13:31.947Z,41.53
2018-01-12T23:16:00.340Z,44.00
2018-01-12T23:18:28.795Z,43.00
2018-01-12T23:20:57.930Z,40.43
2018-01-12T23:23:26.265Z,43.90
2018-01-12T23:25:55.353Z,44.53
2018-01-12T23:28:24.533Z,42.83
2018-01-12T23:30:52.964Z,41.33
2018-01-12T23:33:21.369Z,43.40
2018-01-12T23:35:49.811Z,45.83
2018-01-12T23:38:18.252Z,42.80
2018-01-12T23:40:46.592Z,45.27
2018-01-12T23:43:14.949Z,48.00
2018-01-12T23:45:43.271Z,45.80
2018-01-12T23:48:11.619Z,47.40
2018-01-12T23:50:40.026Z,48.03
2018-01-12T23:53:08.359Z,50.27
2018-01-12T23:55:36.742Z,52.33
2018-01-12T23:58:05.140Z,45.97
